Time;durP1;ratioP1;P1;durP2;ratioP2;P2;SDS_P1;SDS_P2;PMS_P1;PMS_P2;Temp;Humidity;BMP_temperature;BMP_pressure;BME280_temperature;BME280_humidity;BME280_pressure;Samples;Min_cycle;Max_cycle;Signal;HPM_P1;HPM_P2
2022/11/09 00:01:19;;;;;;;5.80;2.00;;;;;;;17.05;100.00;100255.06;5041639;28;20448;-75
2022/11/09 00:03:46;;;;;;;2.90;1.75;;;;;;;16.96;100.00;100266.13;5042508;28;20041;-76
2022/11/09 00:06:13;;;;;;;4.70;1.70;;;;;;;17.12;100.00;100261.19;5044701;28;20049;-76
2022/11/09 00:08:40;;;;;;;3.97;1.60;;;;;;;17.06;100.00;100251.03;5045016;28;20055;-73
2022/11/09 00:11:09;;;;;;;3.25;1.67;;;;;;;17.11;100.00;100254.00;5032779;28;20099;-75
2022/11/09 00:13:40;;;;;;;1.30;0.85;;;;;;;17.00;100.00;100245.22;5042738;28;20046;-76
2022/11/09 00:16:10;;;;;;;2.17;0.90;;;;;;;17.07;100.00;100250.56;5046647;28;20048;-75
2022/11/09 00:18:37;;;;;;;5.90;1.70;;;;;;;17.04;100.00;100256.31;5045058;28;20070;-75
2022/11/09 00:21:12;;;;;;;1.65;0.77;;;;;;;17.04;100.00;100243.09;5041350;28;20095;-75
2022/11/09 00:23:39;;;;;;;3.00;1.80;;;;;;;17.10;100.00;100248.88;5040456;28;20048;-76
2022/11/09 00:26:08;;;;;;;7.72;1.90;;;;;;;17.09;100.00;100241.72;5041864;28;20783;-73
2022/11/09 00:28:35;;;;;;;1.63;1.20;;;;;;;17.08;100.00;100240.19;5044735;28;20093;-76
2022/11/09 00:31:05;;;;;;;3.17;1.77;;;;;;;17.05;100.00;100233.47;5036295;28;20040;-75
2022/11/09 00:33:32;;;;;;;3.15;1.52;;;;;;;16.99;100.00;100228.91;5037925;28;20377;-76
2022/11/09 00:36:09;;;;;;;5.20;1.90;;;;;;;17.04;100.00;100223.53;5035287;28;20569;-76
2022/11/09 00:38:39;;;;;;;4.55;1.70;;;;;;;17.02;100.00;100228.81;5031975;28;20409;-75
2022/11/09 00:41:08;;;;;;;4.03;1.02;;;;;;;16.91;100.00;100227.59;5040213;28;20049;-75
2022/11/09 00:43:34;;;;;;;4.40;1.80;;;;;;;16.99;100.00;100228.91;5038708;28;20089;-75
2022/11/09 00:46:01;;;;;;;1.90;1.05;;;;;;;16.91;100.00;100236.00;5043812;28;20059;-75
2022/11/09 00:48:28;;;;;;;5.55;1.80;;;;;;;16.98;100.00;100235.75;5043537;28;20166;-75
2022/11/09 00:50:56;;;;;;;5.88;1.83;;;;;;;16.89;100.00;100239.22;5050311;28;20436;-75
2022/11/09 00:53:24;;;;;;;5.63;1.45;;;;;;;16.88;100.00;100242.47;5045947;28;20048;-76
2022/11/09 00:56:05;;;;;;;3.22;1.50;;;;;;;16.83;100.00;100226.25;5045904;28;20049;-75
2022/11/09 00:58:33;;;;;;;4.55;1.70;;;;;;;16.83;100.00;100231.84;5032997;28;20982;-73
2022/11/09 01:01:06;;;;;;;3.33;1.70;;;;;;;16.78;100.00;100232.44;5041748;28;20173;-76
2022/11/09 01:03:32;;;;;;;6.38;1.88;;;;;;;16.76;100.00;100229.31;5038449;28;20175;-76
2022/11/09 01:05:59;;;;;;;3.13;0.98;;;;;;;16.63;100.00;100220.16;5042899;28;20177;-73
2022/11/09 01:08:25;;;;;;;5.68;1.80;;;;;;;16.75;100.00;100233.34;5042709;28;20810;-73
2022/11/09 01:10:52;;;;;;;2.95;1.80;;;;;;;16.74;100.00;100238.13;5041911;28;20049;-73
2022/11/09 01:13:18;;;;;;;2.65;0.93;;;;;;;16.67;100.00;100254.38;5042673;28;20053;-73
2022/11/09 01:15:51;;;;;;;2.53;1.08;;;;;;;16.62;100.00;100255.72;5045944;28;20076;-76
2022/11/09 01:18:20;;;;;;;2.70;1.60;;;;;;;16.71;100.00;100249.44;5043984;28;20049;-74
2022/11/09 01:20:48;;;;;;;7.90;2.03;;;;;;;16.55;100.00;100255.94;5042234;28;20056;-73
2022/11/09 01:23:17;;;;;;;3.65;1.58;;;;;;;16.63;100.00;100248.09;5039027;28;20814;-75
2022/11/09 01:25:44;;;;;;;5.35;1.80;;;;;;;16.60;100.00;100251.81;5038798;28;20051;-75
2022/11/09 01:28:10;;;;;;;1.40;1.23;;;;;;;16.48;100.00;100253.38;5041540;28;20167;-74
2022/11/09 01:30:39;;;;;;;3.50;1.25;;;;;;;16.53;100.00;100254.81;5039232;28;20051;-76
2022/11/09 01:33:08;;;;;;;8.30;2.10;;;;;;;16.50;100.00;100253.69;5043356;28;20054;-75
2022/11/09 01:35:37;;;;;;;3.35;1.75;;;;;;;16.52;100.00;100253.25;5048959;28;20044;-75
2022/11/09 01:38:04;;;;;;;3.25;1.65;;;;;;;16.53;100.00;100257.59;5038742;28;20630;-76
2022/11/09 01:40:32;;;;;;;8.25;1.85;;;;;;;16.47;100.00;100253.84;5048927;28;20743;-75
2022/11/09 01:43:15;;;;;;;3.20;1.65;;;;;;;16.50;100.00;100255.75;5049529;28;20057;-75
2022/11/09 01:45:48;;;;;;;5.57;1.70;;;;;;;16.52;100.00;100250.47;5039898;28;20062;-75
2022/11/09 01:48:19;;;;;;;2.90;1.15;;;;;;;16.47;100.00;100259.41;5046202;28;20055;-76
2022/11/09 01:50:57;;;;;;;2.10;1.02;;;;;;;16.39;100.00;100263.63;5051573;28;20047;-75
2022/11/09 01:53:28;;;;;;;5.47;1.83;;;;;;;16.52;100.00;100267.22;5053693;28;20056;-74
2022/11/09 01:56:00;;;;;;;3.80;1.70;;;;;;;16.46;100.00;100250.25;5047076;28;20059;-75
2022/11/09 01:58:36;;;;;;;3.75;1.63;;;;;;;16.43;100.00;100267.91;5050536;28;20059;-75
2022/11/09 02:01:04;;;;;;;1.58;1.23;;;;;;;16.42;100.00;100255.19;5043746;28;20348;-75
2022/11/09 02:03:39;;;;;;;4.07;1.50;;;;;;;16.38;100.00;100267.66;5046567;28;20049;-73
2022/11/09 02:06:09;;;;;;;4.35;1.50;;;;;;;16.47;100.00;100259.41;5047137;28;20786;-73
2022/11/09 02:08:35;;;;;;;4.82;1.80;;;;;;;16.47;100.00;100248.25;5050302;28;20052;-74
2022/11/09 02:11:10;;;;;;;8.10;1.90;;;;;;;16.39;100.00;100255.25;5045541;28;20048;-74
2022/11/09 02:13:44;;;;;;;4.20;1.40;;;;;;;16.37;100.00;100252.91;5048060;28;20819;-77
2022/11/09 02:16:12;;;;;;;3.28;1.52;;;;;;;16.32;100.00;100255.47;5047560;28;20056;-76
2022/11/09 02:18:52;;;;;;;4.07;1.35;;;;;;;16.38;100.00;100248.91;5047454;28;20053;-73
2022/11/09 02:21:21;;;;;;;6.80;1.92;;;;;;;16.31;100.00;100243.53;5042405;28;20048;-74
2022/11/09 02:23:49;;;;;;;1.98;1.00;;;;;;;16.26;100.00;100246.13;5045542;28;20051;-76
2022/11/09 02:26:23;;;;;;;6.20;1.92;;;;;;;16.33;100.00;100251.47;5045008;28;20056;-73
2022/11/09 02:28:54;;;;;;;2.90;1.05;;;;;;;16.21;100.00;100255.81;5049315;28;20052;-75
2022/11/09 02:31:23;;;;;;;2.65;0.95;;;;;;;16.23;100.00;100252.59;5047108;28;20143;-76
2022/11/09 02:33:50;;;;;;;4.97;1.27;;;;;;;16.24;100.00;100256.94;5044264;28;20053;-75
2022/11/09 02:36:16;;;;;;;6.22;1.85;;;;;;;16.28;100.00;100240.84;5050174;28;20059;-75
2022/11/09 02:38:43;;;;;;;4.53;1.40;;;;;;;16.23;100.00;100230.25;5044997;28;20049;-75
2022/11/09 02:41:12;;;;;;;3.75;1.45;;;;;;;16.26;100.00;100234.94;5049988;28;20063;-75
2022/11/09 02:43:39;;;;;;;3.50;1.35;;;;;;;16.17;100.00;100238.41;5041905;28;20114;-75
2022/11/09 02:46:06;;;;;;;2.80;1.40;;;;;;;16.08;100.00;100243.88;5043866;28;20049;-75
2022/11/09 02:48:32;;;;;;;2.35;0.88;;;;;;;16.08;100.00;100235.50;5047044;28;20869;-76
2022/11/09 02:50:59;;;;;;;2.80;1.58;;;;;;;16.21;100.00;100236.28;5049168;28;20061;-74
2022/11/09 02:53:26;;;;;;;9.85;0.82;;;;;;;16.18;100.00;100234.38;5045873;28;20576;-75
2022/11/09 02:55:52;;;;;;;6.20;1.60;;;;;;;16.13;100.00;100248.13;5044266;28;20198;-75
2022/11/09 02:58:19;;;;;;;4.93;1.48;;;;;;;16.08;100.00;100235.50;5042989;28;20537;-74
2022/11/09 03:00:45;;;;;;;6.50;1.90;;;;;;;16.18;100.00;100239.19;5045889;28;20167;-75
2022/11/09 03:03:12;;;;;;;6.28;1.67;;;;;;;16.10;100.00;100232.25;5045741;28;20056;-75
2022/11/09 03:05:39;;;;;;;1.55;0.80;;;;;;;16.04;100.00;100246.00;5059449;28;20509;-73
2022/11/09 03:08:05;;;;;;;3.85;1.15;;;;;;;16.11;100.00;100245.78;5061516;28;20084;-74
2022/11/09 03:10:32;;;;;;;4.55;1.50;;;;;;;16.10;100.00;100235.06;5067833;28;20056;-72
2022/11/09 03:12:59;;;;;;;5.15;1.90;;;;;;;16.19;100.00;100246.31;5067923;28;20049;-74
2022/11/09 03:15:25;;;;;;;8.55;1.88;;;;;;;16.16;100.00;100245.19;5066658;28;20040;-74
2022/11/09 03:17:55;;;;;;;2.55;1.35;;;;;;;16.09;100.00;100248.22;5066881;28;20049;-73
2022/11/09 03:20:21;;;;;;;3.88;1.52;;;;;;;16.08;100.00;100248.66;5066579;28;20051;-74
2022/11/09 03:22:47;;;;;;;6.78;2.20;;;;;;;16.11;100.00;100259.72;5067911;28;20060;-74
2022/11/09 03:25:14;;;;;;;0.47;0.47;;;;;;;16.04;100.00;100278.69;5067246;28;20045;-73
2022/11/09 03:27:41;;;;;;;3.40;1.17;;;;;;;16.00;100.00;100276.00;5065869;28;20051;-75
2022/11/09 03:30:10;;;;;;;1.52;0.77;;;;;;;16.01;100.00;100283.16;5057705;28;20053;-72
2022/11/09 03:32:37;;;;;;;7.68;1.67;;;;;;;16.11;100.00;100268.09;5069135;28;20055;-75
2022/11/09 03:35:04;;;;;;;3.83;1.23;;;;;;;16.05;100.00;100277.44;5068664;28;20047;-73
2022/11/09 03:37:30;;;;;;;6.32;1.50;;;;;;;16.12;100.00;100286.41;5066812;28;20052;-75
2022/11/09 03:39:57;;;;;;;9.48;2.30;;;;;;;16.18;100.00;100273.47;5066145;28;20070;-75
2022/11/09 03:42:23;;;;;;;3.70;1.25;;;;;;;16.07;100.00;100281.38;5068792;28;20049;-75
2022/11/09 03:44:49;;;;;;;8.60;1.55;;;;;;;16.17;100.00;100287.84;5064983;28;20444;-75
2022/11/09 03:47:22;;;;;;;6.90;1.83;;;;;;;16.16;100.00;100284.28;5067041;28;20045;-75
2022/11/09 03:49:48;;;;;;;10.05;1.83;;;;;;;16.20;100.00;100284.19;5058833;28;20063;-75
2022/11/09 03:52:14;;;;;;;10.30;1.63;;;;;;;16.12;100.00;100296.78;5047884;28;20040;-75
2022/11/09 03:54:41;;;;;;;5.03;1.65;;;;;;;16.14;100.00;100289.53;5049575;28;20107;-75
2022/11/09 03:57:07;;;;;;;6.53;1.30;;;;;;;16.14;100.00;100289.53;5078629;28;20052;-75
2022/11/09 03:59:35;;;;;;;4.85;1.95;;;;;;;16.18;100.00;100292.19;5059904;28;20044;-75
2022/11/09 04:02:01;;;;;;;3.10;0.73;;;;;;;16.13;100.00;100301.16;5068214;28;20052;-75
2022/11/09 04:04:30;;;;;;;3.17;1.35;;;;;;;16.20;100.00;100296.09;5068964;28;20126;-75
2022/11/09 04:06:56;;;;;;;9.50;1.30;;;;;;;16.21;100.00;100297.69;5067263;28;20052;-75
2022/11/09 04:09:23;;;;;;;7.63;1.40;;;;;;;16.19;100.00;100286.19;5056112;28;20060;-74
2022/11/09 04:11:49;;;;;;;3.92;1.25;;;;;;;16.12;100.00;100280.81;5068118;28;20063;-75
2022/11/09 04:14:16;;;;;;;5.22;0.88;;;;;;;16.11;100.00;100278.47;5067703;28;20535;-75
2022/11/09 04:16:42;;;;;;;4.20;1.15;;;;;;;16.17;100.00;100290.66;5058279;28;20052;-74
2022/11/09 04:19:08;;;;;;;17.90;2.22;;;;;;;16.23;100.00;100286.09;5064503;28;20056;-73
2022/11/09 04:21:35;;;;;;;2.92;1.15;;;;;;;16.18;100.00;100283.84;5064728;28;20052;-74
2022/11/09 04:24:01;;;;;;;14.32;2.08;;;;;;;16.23;100.00;100280.50;5068541;28;20173;-74
2022/11/09 04:26:31;;;;;;;4.70;1.60;;;;;;;16.14;100.00;100277.59;5068333;28;20052;-75
2022/11/09 04:28:57;;;;;;;2.70;1.25;;;;;;;16.17;100.00;100288.66;5066150;28;20078;-75
2022/11/09 04:31:24;;;;;;;2.72;1.00;;;;;;;16.22;100.00;100290.09;5063884;28;20525;-73
2022/11/09 04:33:53;;;;;;;3.55;1.45;;;;;;;16.22;100.00;100285.28;5067737;28;20059;-75
2022/11/09 04:36:20;;;;;;;6.38;1.38;;;;;;;16.27;100.00;100281.16;5065895;28;20048;-74
2022/11/09 04:38:46;;;;;;;0.85;0.85;;;;;;;16.21;100.00;100289.31;5066348;28;20086;-74
2022/11/09 04:41:13;;;;;;;6.00;1.85;;;;;;;16.29;100.00;100284.28;5056389;28;20067;-74
2022/11/09 04:43:39;;;;;;;3.85;1.80;;;;;;;16.16;100.00;100294.69;5060486;28;20052;-75
2022/11/09 04:46:06;;;;;;;5.10;1.27;;;;;;;16.23;100.00;100300.81;5068019;28;20040;-75
2022/11/09 04:48:33;;;;;;;3.80;0.95;;;;;;;16.23;100.00;100297.25;5066254;28;20780;-74
2022/11/09 04:51:05;;;;;;;11.40;2.60;;;;;;;16.31;100.00;100309.75;5061606;28;20052;-73
2022/11/09 04:53:32;;;;;;;3.45;1.20;;;;;;;16.23;100.00;100306.38;5059767;28;20140;-75
2022/11/09 04:55:59;;;;;;;8.85;2.28;;;;;;;16.24;100.00;100305.19;5067751;28;20063;-74
2022/11/09 04:58:26;;;;;;;9.05;1.75;;;;;;;16.25;100.00;100317.09;5066712;28;20048;-72
2022/11/09 05:00:53;;;;;;;6.60;1.83;;;;;;;16.22;100.00;100318.00;5064501;28;20800;-73
2022/11/09 05:03:20;;;;;;;4.95;1.40;;;;;;;16.18;100.00;100320.13;5066864;28;20056;-74
2022/11/09 05:05:53;;;;;;;1.38;0.80;;;;;;;16.23;100.00;100330.75;5067884;28;20052;-75
2022/11/09 05:08:19;;;;;;;6.38;1.02;;;;;;;16.19;100.00;100322.47;5065802;28;20049;-75
2022/11/09 05:10:46;;;;;;;7.88;1.90;;;;;;;16.21;100.00;100324.81;5069181;28;20055;-73
2022/11/09 05:13:13;;;;;;;6.38;1.30;;;;;;;16.00;100.00;100331.78;5070885;28;20049;-74
2022/11/09 05:15:40;;;;;;;9.38;1.65;;;;;;;16.00;100.00;100333.81;5069184;28;20048;-73
2022/11/09 05:18:09;;;;;;;1.27;0.55;;;;;;;15.93;100.00;100345.19;5071629;28;20078;-73
2022/11/09 05:20:42;;;;;;;5.78;1.20;;;;;;;15.82;100.00;100345.47;5067923;28;20076;-73
2022/11/09 05:26:03;;;;;;;5.55;1.05;;;;;;;15.80;100.00;100336.00;5071602;28;20063;-74
2022/11/09 05:28:30;;;;;;;7.82;1.75;;;;;;;15.79;100.00;100337.22;5071649;28;20052;-73
2022/11/09 05:30:56;;;;;;;6.10;1.30;;;;;;;15.71;100.00;100333.84;5059846;28;20053;-73
2022/11/09 05:33:23;;;;;;;6.95;2.00;;;;;;;15.72;100.00;100337.44;5051726;28;20057;-75
2022/11/09 05:35:49;;;;;;;1.98;0.50;;;;;;;15.62;100.00;100342.06;5061114;28;20037;-73
2022/11/09 05:38:15;;;;;;;5.28;1.48;;;;;;;15.63;100.00;100337.28;5070048;28;20056;-72
2022/11/09 05:40:42;;;;;;;6.07;1.33;;;;;;;15.57;100.00;100339.81;5068720;28;20476;-72
2022/11/09 05:43:11;;;;;;;6.78;1.63;;;;;;;15.61;100.00;100331.34;5063096;28;20063;-72
2022/11/09 05:45:38;;;;;;;7.38;1.80;;;;;;;15.53;100.00;100334.31;5071500;28;20067;-72
2022/11/09 05:48:18;;;;;;;5.75;1.85;;;;;;;15.50;100.00;100331.66;5069347;28;20056;-73
2022/11/09 05:50:45;;;;;;;5.65;1.55;;;;;;;15.60;100.00;100347.31;5059143;28;20057;-75
2022/11/09 05:53:11;;;;;;;5.88;1.63;;;;;;;15.50;100.00;100340.03;5069017;28;20045;-74
2022/11/09 05:55:38;;;;;;;6.40;1.80;;;;;;;15.55;100.00;100339.47;5070711;28;20060;-75
2022/11/09 05:58:05;;;;;;;7.00;1.70;;;;;;;15.52;100.00;100342.38;5054500;28;20053;-73
2022/11/09 06:00:32;;;;;;;9.27;1.33;;;;;;;15.52;100.00;100342.38;5049943;28;20061;-75
2022/11/09 06:03:03;;;;;;;7.80;1.38;;;;;;;15.48;100.00;100347.25;5049312;28;20049;-74
2022/11/09 06:05:32;;;;;;;3.55;1.52;;;;;;;15.39;100.00;100345.09;5062603;28;20045;-74
2022/11/09 06:08:10;;;;;;;4.70;0.77;;;;;;;15.37;100.00;100359.47;5070098;28;20059;-75
2022/11/09 06:10:37;;;;;;;2.58;1.27;;;;;;;15.23;100.00;100350.66;5062455;28;20056;-73
2022/11/09 06:13:03;;;;;;;3.38;1.20;;;;;;;15.19;100.00;100330.47;5065208;28;20060;-73
2022/11/09 06:15:30;;;;;;;7.00;1.00;;;;;;;15.10;100.00;100327.50;5070551;28;20064;-75
2022/11/09 06:17:57;;;;;;;1.83;0.57;;;;;;;14.89;100.00;100337.16;5064166;28;20064;-73
2022/11/09 06:20:26;;;;;;;3.75;1.17;;;;;;;14.89;100.00;100328.81;5066319;28;20638;-74
2022/11/09 06:23:00;;;;;;;5.80;1.52;;;;;;;14.91;100.00;100320.81;5069526;28;20052;-74
2022/11/09 06:25:38;;;;;;;6.40;1.65;;;;;;;14.96;100.00;100325.84;5073046;28;20045;-75
2022/11/09 06:28:04;;;;;;;6.35;1.88;;;;;;;14.95;100.00;100332.66;5069939;28;20417;-74
2022/11/09 06:30:31;;;;;;;7.75;2.05;;;;;;;14.94;100.00;100336.66;5070012;28;20056;-75
2022/11/09 06:32:59;;;;;;;2.30;1.33;;;;;;;14.79;100.00;100334.66;5061535;28;20060;-74
2022/11/09 06:35:25;;;;;;;8.07;2.35;;;;;;;14.84;100.00;100337.72;5064986;28;20466;-74
2022/11/09 06:37:59;;;;;;;10.00;1.88;;;;;;;14.78;100.00;100339.44;5062320;28;20051;-74
2022/11/09 06:40:26;;;;;;;2.60;1.00;;;;;;;14.73;100.00;100334.41;5060176;28;20057;-70
2022/11/09 06:42:58;;;;;;;9.00;1.08;;;;;;;14.70;100.00;100338.06;5061785;28;20064;-73
2022/11/09 06:45:25;;;;;;;10.20;1.98;;;;;;;14.78;100.00;100344.25;5068572;28;20451;-73
2022/11/09 06:48:00;;;;;;;8.18;1.77;;;;;;;14.76;100.00;100355.03;5069560;28;20071;-74
2022/11/09 06:50:29;;;;;;;10.95;2.05;;;;;;;14.80;100.00;100348.16;5069336;28;20052;-74
2022/11/09 06:53:01;;;;;;;12.07;2.58;;;;;;;14.84;100.00;100348.06;5057626;28;20075;-73
2022/11/09 06:55:29;;;;;;;9.60;1.90;;;;;;;14.82;100.00;100350.50;5064816;28;20056;-74
2022/11/09 06:57:56;;;;;;;12.10;2.53;;;;;;;14.82;100.00;100365.19;5063947;28;20063;-73
2022/11/09 07:00:24;;;;;;;10.32;1.88;;;;;;;14.82;100.00;100367.97;5069147;28;20052;-72
2022/11/09 07:02:51;;;;;;;12.13;2.58;;;;;;;14.86;100.00;100367.91;5053484;28;20060;-72
2022/11/09 07:05:18;;;;;;;9.40;2.08;;;;;;;14.93;100.00;100362.97;5065636;28;20052;-72
2022/11/09 07:07:44;;;;;;;12.43;2.03;;;;;;;14.88;100.00;100360.69;5057369;28;20056;-71
2022/11/09 07:10:12;;;;;;;6.30;1.35;;;;;;;14.84;100.00;100364.75;5047832;28;20061;-73
2022/11/09 07:12:38;;;;;;;7.10;2.15;;;;;;;14.83;100.00;100372.34;5049874;28;20048;-74
2022/11/09 07:15:05;;;;;;;10.13;2.05;;;;;;;14.91;100.00;100375.72;5059194;28;20044;-74
2022/11/09 07:17:33;;;;;;;6.90;2.13;;;;;;;14.92;100.00;100378.09;5067189;28;20378;-73
2022/11/09 07:20:08;;;;;;;9.68;2.58;;;;;;;14.90;100.00;100385.31;5059554;28;20052;-73
2022/11/09 07:22:40;;;;;;;13.40;3.45;;;;;;;14.90;100.00;100372.19;5048741;28;20064;-74
2022/11/09 07:25:12;;;;;;;1.27;1.15;;;;;;;14.80;100.00;100381.56;5063578;28;20060;-74
2022/11/09 07:27:38;;;;;;;4.35;1.50;;;;;;;14.86;100.00;100379.84;5056623;28;20056;-74
2022/11/09 07:30:06;;;;;;;9.70;2.60;;;;;;;14.85;100.00;100377.50;5065611;28;20060;-74
2022/11/09 07:32:36;;;;;;;7.95;2.08;;;;;;;14.85;100.00;100381.03;5069402;28;20398;-72
2022/11/09 07:35:23;;;;;;;4.95;1.58;;;;;;;14.84;100.00;100376.69;5067523;28;20110;-73
2022/11/09 07:37:49;;;;;;;7.40;2.00;;;;;;;14.88;100.00;100388.53;5055162;28;20044;-72
2022/11/09 07:40:16;;;;;;;5.43;1.33;;;;;;;14.83;100.00;100383.50;5065060;28;20048;-73
2022/11/09 07:42:42;;;;;;;9.93;2.50;;;;;;;14.87;100.00;100386.97;5064910;28;20055;-72
2022/11/09 07:45:09;;;;;;;10.98;2.63;;;;;;;14.92;100.00;100391.25;5064122;28;20044;-72
2022/11/09 07:47:36;;;;;;;5.75;1.58;;;;;;;14.85;100.00;100392.19;5048235;28;20505;-73
2022/11/09 07:50:03;;;;;;;9.43;1.73;;;;;;;14.89;100.00;100394.91;5047863;28;20072;-72
2022/11/09 07:52:30;;;;;;;4.40;1.20;;;;;;;14.85;100.00;100400.53;5060606;28;20052;-73
2022/11/09 07:54:56;;;;;;;6.03;0.95;;;;;;;14.89;100.00;100400.47;5067362;28;20045;-73
2022/11/09 07:57:23;;;;;;;3.08;1.35;;;;;;;14.95;100.00;100410.66;5057605;28;20052;-73
2022/11/09 07:59:52;;;;;;;7.80;1.60;;;;;;;14.91;100.00;100415.53;5053544;28;20052;-72
2022/11/09 08:02:18;;;;;;;3.75;1.70;;;;;;;14.93;100.00;100415.88;5068140;28;20570;-74
2022/11/09 08:04:45;;;;;;;9.75;1.75;;;;;;;14.96;100.00;100414.22;5054682;28;20060;-74
2022/11/09 08:07:11;;;;;;;10.60;2.15;;;;;;;15.11;100.00;100410.66;5056319;28;20127;-71
2022/11/09 08:09:38;;;;;;;3.63;1.23;;;;;;;15.07;100.00;100417.53;5047384;28;20095;-73
2022/11/09 08:12:05;;;;;;;5.60;1.25;;;;;;;15.13;100.00;100419.34;5059801;28;20057;-73
2022/11/09 08:14:32;;;;;;;2.53;1.23;;;;;;;15.17;100.00;100422.06;5067509;28;20109;-74
2022/11/09 08:16:58;;;;;;;5.82;2.33;;;;;;;15.18;100.00;100418.06;5063172;28;20049;-73
2022/11/09 08:19:25;;;;;;;5.90;1.70;;;;;;;15.18;100.00;100412.50;5057349;28;20440;-74
2022/11/09 08:21:56;;;;;;;7.50;1.33;;;;;;;15.33;100.00;100428.41;5060583;28;20048;-74
2022/11/09 08:24:23;;;;;;;7.80;1.60;;;;;;;15.38;100.00;100416.78;5058937;28;20048;-73
2022/11/09 08:26:49;;;;;;;5.35;1.13;;;;;;;15.39;100.00;100418.34;5060006;28;20052;-74
2022/11/09 08:29:16;;;;;;;6.90;2.03;;;;;;;15.28;100.00;100419.81;5066894;28;20068;-72
2022/11/09 08:31:42;;;;;;;1.83;0.98;;;;;;;15.39;100.00;100434.31;5052732;28;20045;-74
2022/11/09 08:34:13;;;;;;;3.92;1.50;;;;;;;15.36;100.00;100426.81;5048233;28;20516;-74
2022/11/09 08:36:40;;;;;;;6.18;1.73;;;;;;;15.50;100.00;100435.59;5059583;28;20044;-73
2022/11/09 08:39:07;;;;;;;2.42;0.82;;;;;;;15.49;100.00;100434.03;5064960;28;20052;-73
2022/11/09 08:41:33;;;;;;;7.75;2.03;;;;;;;15.40;100.00;100438.66;5065049;28;20505;-74
2022/11/09 08:44:00;;;;;;;4.00;1.10;;;;;;;15.55;100.00;100436.31;5067438;28;20532;-73
2022/11/09 08:46:26;;;;;;;4.75;1.38;;;;;;;15.61;100.00;100432.53;5067518;28;20456;-73
2022/11/09 08:48:53;;;;;;;1.30;0.85;;;;;;;15.57;100.00;100442.19;5064116;28;20052;-74
2022/11/09 08:51:20;;;;;;;12.20;1.98;;;;;;;15.65;100.00;100443.59;5067021;28;20059;-73
2022/11/09 08:53:46;;;;;;;6.97;1.63;;;;;;;15.73;100.00;100439.41;5068040;28;20059;-73
2022/11/09 08:56:17;;;;;;;5.35;1.50;;;;;;;15.65;100.00;100449.19;5058664;28;20044;-74
2022/11/09 08:58:44;;;;;;;1.48;0.75;;;;;;;15.81;100.00;100437.97;5059131;28;20049;-74
2022/11/09 09:01:11;;;;;;;2.10;0.90;;;;;;;15.79;100.00;100440.44;5056203;28;20048;-74
2022/11/09 09:03:42;;;;;;;4.18;1.08;;;;;;;15.84;100.00;100446.25;5064387;28;20063;-73
2022/11/09 09:06:09;;;;;;;3.63;1.27;;;;;;;15.87;100.00;100450.19;5055698;28;20048;-73
2022/11/09 09:08:35;;;;;;;3.92;0.95;;;;;;;15.90;100.00;100441.72;5062728;28;20110;-73
2022/11/09 09:11:05;;;;;;;2.88;1.50;;;;;;;15.92;100.00;100444.06;5057184;28;20065;-71
2022/11/09 09:13:32;;;;;;;4.22;1.02;;;;;;;15.98;100.00;100439.50;5052204;28;20044;-71
2022/11/09 09:16:08;;;;;;;2.55;1.25;;;;;;;16.00;100.00;100451.78;5051431;28;20049;-74
2022/11/09 09:18:35;;;;;;;2.45;1.40;;;;;;;16.06;100.00;100452.81;5047448;28;20106;-74
2022/11/09 09:21:05;;;;;;;6.60;1.02;;;;;;;16.12;100.00;100447.47;5050255;28;20130;-74
2022/11/09 09:23:32;;;;;;;5.47;1.27;;;;;;;16.02;100.00;100454.13;5051521;28;20057;-73
2022/11/09 09:25:58;;;;;;;4.22;1.30;;;;;;;16.07;100.00;100456.41;5063657;28;20048;-74
2022/11/09 09:28:24;;;;;;;3.60;0.98;;;;;;;16.23;100.00;100456.34;5052714;28;20054;-72
2022/11/09 09:30:52;;;;;;;2.97;1.08;;;;;;;16.30;100.00;100454.13;5049720;28;20045;-73
2022/11/09 09:33:18;;;;;;;5.20;1.35;;;;;;;16.45;100.00;100463.72;5056972;28;20053;-74
2022/11/09 09:35:45;;;;;;;3.95;0.90;;;;;;;16.44;100.00;100445.38;5061657;28;20055;-73
2022/11/09 09:38:11;;;;;;;2.28;1.05;;;;;;;16.49;100.00;100456.00;5056442;28;20301;-72
2022/11/09 09:40:48;;;;;;;6.60;1.70;;;;;;;16.59;100.00;100454.13;5047653;28;20045;-71
2022/11/09 09:43:24;;;;;;;5.78;1.50;;;;;;;16.53;100.00;100459.47;5053160;28;20060;-71
2022/11/09 09:45:52;;;;;;;4.60;1.58;;;;;;;16.59;100.00;100468.88;5049433;28;20129;-71
2022/11/09 09:48:30;;;;;;;5.65;1.10;;;;;;;16.63;100.00;100463.97;5047877;28;20052;-72
2022/11/09 09:51:03;;;;;;;8.05;1.52;;;;;;;16.49;100.00;100486.72;5044101;28;20529;-72
2022/11/09 09:53:48;;;;;;;5.30;1.77;;;;;;;16.42;100.00;100469.34;5060369;28;20524;-72
2022/11/09 09:56:22;;;;;;;1.40;0.95;;;;;;;16.63;100.00;100488.31;5048811;28;20124;-74
2022/11/09 09:58:55;;;;;;;6.07;1.52;;;;;;;16.49;100.00;100485.94;5065174;28;20105;-73
2022/11/09 10:01:26;;;;;;;4.47;1.58;;;;;;;16.39;100.00;100485.00;5068435;28;20057;-73
2022/11/09 10:03:53;;;;;;;6.60;2.17;;;;;;;16.55;100.00;100489.75;5066733;28;20063;-72
2022/11/09 10:06:36;;;;;;;10.73;1.83;;;;;;;16.29;100.00;100493.66;5067329;28;20497;-75
2022/11/09 10:09:20;;;;;;;8.23;1.95;;;;;;;16.57;99.93;100493.66;5069772;28;20052;-73
2022/11/09 10:12:03;;;;;;;7.80;1.73;;;;;;;16.60;98.43;100512.34;5056819;28;20716;-73
2022/11/09 10:14:57;;;;;;;2.03;1.63;;;;;;;16.55;97.10;100489.75;5053567;28;20657;-74
2022/11/09 10:17:27;;;;;;;7.18;1.52;;;;;;;16.85;97.45;100492.84;5061279;28;20068;-73
2022/11/09 10:20:31;;;;;;;7.72;1.48;;;;;;;16.97;95.11;100499.66;5057400;28;20067;-72
2022/11/09 10:23:19;;;;;;;5.20;1.00;;;;;;;16.96;95.06;100489.72;5070210;28;20048;-73
2022/11/09 10:25:53;;;;;;;9.32;1.98;;;;;;;17.02;94.81;100497.13;5066494;28;20106;-74
2022/11/09 10:28:41;;;;;;;7.28;1.45;;;;;;;17.05;92.63;100496.19;5065685;28;20593;-74
2022/11/09 10:31:31;;;;;;;4.78;1.20;;;;;;;17.26;92.31;100484.38;5067320;28;20795;-74
2022/11/09 10:34:16;;;;;;;5.88;1.50;;;;;;;17.33;90.22;100492.53;5065725;28;20079;-74
2022/11/09 10:37:09;;;;;;;6.45;2.13;;;;;;;17.31;88.19;100488.59;5067156;28;20083;-72
2022/11/09 10:39:49;;;;;;;6.25;2.10;;;;;;;17.16;88.71;100493.09;5066728;28;20044;-71
2022/11/09 10:42:15;;;;;;;5.03;1.60;;;;;;;17.23;86.73;100499.25;5053857;28;20063;-75
2022/11/09 10:44:41;;;;;;;2.85;1.10;;;;;;;17.47;87.97;100491.31;5052303;28;20066;-74
2022/11/09 10:47:11;;;;;;;3.72;1.13;;;;;;;17.46;87.13;100498.13;5053770;28;20041;-75
2022/11/09 10:49:39;;;;;;;5.82;1.48;;;;;;;17.24;87.22;100505.59;5067804;28;20572;-74
2022/11/09 10:52:38;;;;;;;2.92;1.08;;;;;;;17.66;85.85;100493.06;5066344;28;20071;-72
2022/11/09 10:55:22;;;;;;;1.13;0.60;;;;;;;18.12;83.33;100499.88;5063348;28;20178;-74
2022/11/09 10:57:51;;;;;;;3.53;1.17;;;;;;;17.63;82.75;100502.38;5063856;28;20071;-73
2022/11/09 11:00:20;;;;;;;3.50;1.48;;;;;;;17.69;81.17;100508.97;5056723;28;20053;-72
2022/11/09 11:02:49;;;;;;;6.40;1.17;;;;;;;17.86;80.88;100519.53;5048025;28;20636;-72
2022/11/09 11:05:15;;;;;;;5.75;1.13;;;;;;;17.87;80.36;100493.13;5049287;28;20052;-71
2022/11/09 11:07:43;;;;;;;7.15;1.35;;;;;;;17.90;79.39;100499.84;5053808;28;20049;-72
2022/11/09 11:10:15;;;;;;;2.40;0.70;;;;;;;18.18;79.85;100496.03;5054003;28;20658;-72
2022/11/09 11:12:45;;;;;;;3.65;1.15;;;;;;;18.80;74.13;100497.75;5052032;28;20269;-74
2022/11/09 11:15:28;;;;;;;5.13;1.13;;;;;;;19.20;70.97;100500.63;5046440;28;20053;-73
2022/11/09 11:18:03;;;;;;;2.97;1.10;;;;;;;19.99;66.13;100484.50;5046569;28;20055;-73
2022/11/09 11:20:31;;;;;;;12.02;1.55;;;;;;;20.62;62.77;100494.94;5062505;28;20044;-73
2022/11/09 11:23:11;;;;;;;9.40;1.17;;;;;;;20.69;58.67;100488.22;5057348;28;20061;-73
2022/11/09 11:25:53;;;;;;;10.80;1.83;;;;;;;20.18;60.40;100494.50;5046197;28;20057;-73
2022/11/09 11:28:50;;;;;;;4.55;1.60;;;;;;;19.83;63.54;100506.44;5028777;28;20075;-72
2022/11/09 11:31:19;;;;;;;7.43;1.77;;;;;;;20.17;59.40;100504.19;5032298;28;20044;-75